Time,TemperatureF,DewpointF,PressureIn,WindDirection,WindDirectionDegrees,WindSpeedMPH,WindSpeedGustMPH,Humidity,HourlyPrecipIn,Conditions,Clouds,dailyrainin,SoftwareType,DateUTC
2013-01-12 00:05:00,32.8,32.8,30.25,SE,127,0.0,0.0,100,0.00,,,0.12,Wunderground v.1.15,2013-01-12 08:05:00,
2013-01-12 00:35:00,32.9,32.9,30.24,NE,49,0.0,1.0,100,0.00,,,0.00,Wunderground v.1.15,2013-01-12 08:35:00,
2013-01-12 01:05:00,33.2,33.2,30.25,NE,49,0.0,0.0,100,0.00,,,0.00,Wunderground v.1.15,2013-01-12 09:05:00,
2013-01-12 01:35:00,33.2,33.2,30.25,NE,56,0.0,0.0,100,0.00,,,0.00,Wunderground v.1.15,2013-01-12 09:35:00,
2013-01-12 02:05:00,33.5,33.2,30.24,East,92,0.0,0.0,99,0.00,,,0.00,Wunderground v.1.15,2013-01-12 10:05:00,
2013-01-12 02:35:00,33.5,33.0,30.25,ESE,102,0.0,0.0,98,0.00,,,0.00,Wunderground v.1.15,2013-01-12 10:35:00,
2013-01-12 03:05:00,33.5,33.0,30.25,East,83,0.0,0.0,98,0.00,,,0.00,Wunderground v.1.15,2013-01-12 11:05:00,
2013-01-12 03:35:00,33.7,32.9,30.25,NE,49,0.0,0.0,97,0.00,,,0.00,Wunderground v.1.15,2013-01-12 11:35:00,
2013-01-12 04:05:00,33.7,32.7,30.24,East,93,0.0,0.0,96,0.00,,,0.00,Wunderground v.1.15,2013-01-12 12:05:00,
2013-01-12 04:35:00,33.7,32.7,30.23,NE,51,0.0,1.0,96,0.00,,,0.00,Wunderground v.1.15,2013-01-12 12:35:00,
2013-01-12 05:05:00,33.5,32.5,30.23,East,86,0.0,0.0,96,0.00,,,0.00,Wunderground v.1.15,2013-01-12 13:05:00,
2013-01-12 05:35:00,33.5,32.5,30.24,NE,42,0.0,0.0,96,0.00,,,0.00,Wunderground v.1.15,2013-01-12 13:35:00,
2013-01-12 06:05:00,33.4,32.6,30.24,East,92,0.0,1.0,97,0.00,,,0.00,Wunderground v.1.15,2013-01-12 14:05:00,
2013-01-12 06:35:00,33.1,32.3,30.24,NE,40,0.0,0.0,97,0.00,,,0.00,Wunderground v.1.15,2013-01-12 14:35:00,
2013-01-12 07:05:00,32.5,32.3,30.24,ENE,58,0.0,0.0,99,0.00,,,0.00,Wunderground v.1.15,2013-01-12 15:05:00,
2013-01-12 07:35:00,32.4,32.4,30.24,NE,38,0.0,3.0,100,0.00,,,0.00,Wunderground v.1.15,2013-01-12 15:35:00,
2013-01-12 08:05:00,32.2,32.2,30.25,ENE,62,1.0,1.0,100,0.00,,,0.00,Wunderground v.1.15,2013-01-12 16:05:00,
2013-01-12 08:35:00,32.4,32.4,30.26,East,88,0.0,0.0,100,0.00,,,0.00,Wunderground v.1.15,2013-01-12 16:35:00,
2013-01-12 09:05:00,33.7,33.7,30.26,East,96,0.0,0.0,100,0.00,,,0.00,Wunderground v.1.15,2013-01-12 17:05:00,
2013-01-12 09:35:00,35.9,35.1,30.27,ENE,61,1.0,1.0,97,0.00,,,0.00,Wunderground v.1.15,2013-01-12 17:35:00,
2013-01-12 10:05:00,35.6,34.6,30.27,East,88,1.0,1.0,96,0.00,,,0.00,Wunderground v.1.15,2013-01-12 18:05:00,
2013-01-12 10:35:00,35.3,34.3,30.28,NNE,23,1.0,1.0,96,0.00,,,0.00,Wunderground v.1.15,2013-01-12 18:35:00,
2013-01-12 11:05:00,35.8,35.0,30.27,East,79,1.0,1.0,97,0.00,,,0.00,Wunderground v.1.15,2013-01-12 19:05:00,
2013-01-12 11:35:00,36.2,35.2,30.27,ENE,71,1.0,1.0,96,0.00,,,0.00,Wunderground v.1.15,2013-01-12 19:35:00,
2013-01-12 12:05:00,36.9,35.3,30.26,ESE,102,1.0,1.0,94,0.00,,,0.00,Wunderground v.1.15,2013-01-12 20:05:00,
2013-01-12 12:35:00,37.2,35.4,30.25,NE,48,1.0,1.0,93,0.00,,,0.00,Wunderground v.1.15,2013-01-12 20:35:00,
2013-01-12 13:05:00,38.3,35.9,30.24,East,83,0.0,2.0,91,0.00,,,0.00,Wunderground v.1.15,2013-01-12 21:05:00,
2013-01-12 13:35:00,39.6,36.3,30.24,NE,42,1.0,1.0,88,0.00,,,0.00,Wunderground v.1.15,2013-01-12 21:35:00,
2013-01-12 14:05:00,40.6,36.1,30.24,SE,131,0.0,2.0,84,0.00,,,0.00,Wunderground v.1.15,2013-01-12 22:05:00,
2013-01-12 14:35:00,41.8,37.3,30.25,ENE,72,1.0,1.0,84,0.00,,,0.00,Wunderground v.1.15,2013-01-12 22:35:00,
2013-01-12 15:05:00,42.1,37.0,30.26,NE,55,1.0,1.0,82,0.00,,,0.00,Wunderground v.1.15,2013-01-12 23:05:00,
2013-01-12 15:35:00,41.9,37.1,30.27,ENE,73,0.0,0.0,83,0.00,,,0.00,Wunderground v.1.15,2013-01-12 23:35:00,
2013-01-12 16:05:00,40.2,36.3,30.27,ESE,109,1.0,1.0,86,0.00,,,0.00,Wunderground v.1.15,2013-01-13 00:05:00,
2013-01-12 16:35:00,39.1,36.4,30.27,ENE,62,0.0,0.0,90,0.00,,,0.00,Wunderground v.1.15,2013-01-13 00:35:00,
2013-01-12 17:05:00,37.5,35.4,30.28,East,89,0.0,0.0,92,0.00,,,0.00,Wunderground v.1.15,2013-01-13 01:05:00,
2013-01-12 17:35:00,36.0,34.7,30.28,ENE,76,0.0,0.0,95,0.00,,,0.00,Wunderground v.1.15,2013-01-13 01:35:00,
2013-01-12 18:05:00,34.7,33.9,30.29,NE,56,0.0,0.0,97,0.00,,,0.00,Wunderground v.1.15,2013-01-13 02:05:00,
2013-01-12 18:35:00,33.5,33.0,30.30,NE,56,0.0,0.0,98,0.00,,,0.00,Wunderground v.1.15,2013-01-13 02:35:00,
2013-01-12 19:05:00,32.4,32.4,30.30,ENE,58,0.0,0.0,100,0.00,,,0.00,Wunderground v.1.15,2013-01-13 03:05:00,
2013-01-12 19:35:00,31.8,31.8,30.29,ENE,58,0.0,0.0,100,0.00,,,0.00,Wunderground v.1.15,2013-01-13 03:35:00,
2013-01-12 20:05:00,31.5,31.5,30.30,ENE,58,0.0,0.0,100,0.00,,,0.00,Wunderground v.1.15,2013-01-13 04:05:00,
2013-01-12 20:35:00,31.6,31.6,30.30,NE,52,0.0,0.0,100,0.00,,,0.00,Wunderground v.1.15,2013-01-13 04:35:00,
2013-01-12 21:05:00,31.2,31.2,30.30,East,83,0.0,0.0,100,0.00,,,0.00,Wunderground v.1.15,2013-01-13 05:05:00,
2013-01-12 21:35:00,30.6,30.6,30.32,SE,130,0.0,0.0,100,0.00,,,0.00,Wunderground v.1.15,2013-01-13 05:35:00,
2013-01-12 22:05:00,29.7,29.7,30.32,ENE,73,0.0,0.0,100,0.00,,,0.00,Wunderground v.1.15,2013-01-13 06:05:00,
2013-01-12 22:35:00,29.5,29.5,30.32,SSE,154,0.0,0.0,100,0.00,,,0.00,Wunderground v.1.15,2013-01-13 06:35:00,
2013-01-12 23:05:00,30.4,30.4,30.33,ENE,69,0.0,1.0,100,0.00,,,0.00,Wunderground v.1.15,2013-01-13 07:05:00,
2013-01-12 23:35:00,30.6,30.6,30.33,NE,55,0.0,0.0,100,0.00,,,0.00,Wunderground v.1.15,2013-01-13 07:35:00,